Time;durP1;ratioP1;P1;durP2;ratioP2;P2;SDS_P1;SDS_P2;PMS_P1;PMS_P2;Temp;Humidity;BMP_temperature;BMP_pressure;BME280_temperature;BME280_humidity;BME280_pressure;Samples;Min_cycle;Max_cycle;Signal;HPM_P1;HPM_P2
2022/05/27 00:01:23;;;;;;;12.13;4.00;;;13.70;99.90;;;;;;5045028;28;20454;-74
2022/05/27 00:03:49;;;;;;;9.45;3.35;;;13.70;99.90;;;;;;5046096;28;20858;-74
2022/05/27 00:06:17;;;;;;;12.88;3.72;;;13.70;99.90;;;;;;5048412;28;20045;-73
2022/05/27 00:08:43;;;;;;;10.70;3.70;;;13.60;99.90;;;;;;4988559;28;20082;-73
2022/05/27 00:11:14;;;;;;;12.25;3.97;;;13.60;99.90;;;;;;5033920;28;20052;-74
2022/05/27 00:13:46;;;;;;;13.35;4.10;;;13.60;99.90;;;;;;5031739;28;20033;-73
2022/05/27 00:16:16;;;;;;;8.73;3.10;;;13.60;99.90;;;;;;5042705;28;20333;-73
2022/05/27 00:19:16;;;;;;;10.75;3.38;;;13.60;99.90;;;;;;5037233;28;20037;-74
2022/05/27 00:22:08;;;;;;;10.55;3.13;;;13.60;99.90;;;;;;5017308;28;20068;-74
2022/05/27 00:24:36;;;;;;;11.10;3.25;;;13.50;99.90;;;;;;5015874;28;20064;-73
2022/05/27 00:27:10;;;;;;;10.85;3.10;;;13.60;99.90;;;;;;5051149;28;20049;-73
2022/05/27 00:29:54;;;;;;;10.95;3.67;;;13.50;99.90;;;;;;5051087;28;20041;-74
2022/05/27 00:32:54;;;;;;;9.80;3.35;;;13.50;99.90;;;;;;5044131;28;20124;-74
2022/05/27 00:35:30;;;;;;;9.27;3.08;;;13.50;99.90;;;;;;5053068;28;20738;-74
2022/05/27 00:39:06;;;;;;;12.40;3.40;;;13.40;99.90;;;;;;5045972;28;20040;-74
2022/05/27 00:41:50;;;;;;;8.77;2.78;;;13.30;99.90;;;;;;5054044;28;20143;-74
2022/05/27 00:44:23;;;;;;;11.15;3.33;;;13.50;99.90;;;;;;5035797;28;20051;-74
2022/05/27 00:47:22;;;;;;;12.65;3.78;;;13.40;99.90;;;;;;5036730;28;20037;-74
2022/05/27 00:49:56;;;;;;;8.32;3.45;;;13.40;99.90;;;;;;5057685;28;20049;-74
2022/05/27 00:52:34;;;;;;;8.45;3.40;;;13.40;99.90;;;;;;5048045;28;20048;-74
2022/05/27 00:55:54;;;;;;;8.15;3.58;;;13.40;99.90;;;;;;5056842;28;20041;-74
2022/05/27 00:59:41;;;;;;;9.50;3.47;;;13.40;99.90;;;;;;5053618;28;20040;-74
2022/05/27 01:02:55;;;;;;;7.63;3.70;;;13.50;99.90;;;;;;4969635;28;20044;-74
2022/05/27 01:05:54;;;;;;;10.90;3.90;;;13.40;99.90;;;;;;4999037;28;20060;-75
2022/05/27 01:09:58;;;;;;;7.70;3.80;;;13.50;99.90;;;;;;4993450;28;20049;-74
2022/05/27 01:13:06;;;;;;;10.43;4.65;;;13.40;99.90;;;;;;5047162;28;20057;-74
2022/05/27 01:16:53;;;;;;;16.27;4.28;;;13.40;99.90;;;;;;5055314;28;20036;-74
2022/05/27 01:20:30;;;;;;;12.50;4.53;;;13.40;99.90;;;;;;5054484;28;20118;-74
2022/05/27 01:24:25;;;;;;;12.52;4.40;;;13.50;99.90;;;;;;5061394;28;20553;-74
2022/05/27 01:28:16;;;;;;;12.57;4.38;;;13.50;99.90;;;;;;5026850;28;20036;-74
2022/05/27 01:31:55;;;;;;;10.95;4.20;;;13.40;99.90;;;;;;5061452;28;20391;-74
2022/05/27 01:35:40;;;;;;;14.23;4.65;;;13.40;99.90;;;;;;5060093;28;20040;-74
2022/05/27 01:38:42;;;;;;;14.20;4.40;;;13.30;99.90;;;;;;5044719;28;20032;-74
2022/05/27 01:42:03;;;;;;;14.27;4.82;;;13.20;99.90;;;;;;5047728;28;20059;-74
2022/05/27 01:53:39;;;;;;;14.88;5.28;;;13.10;99.90;;;;;;5047938;28;20040;-75
2022/05/27 01:56:37;;;;;;;15.18;5.15;;;13.10;99.90;;;;;;5047053;28;20037;-74
2022/05/27 02:00:24;;;;;;;15.27;4.90;;;13.00;99.90;;;;;;5063162;28;20091;-74
2022/05/27 02:04:24;;;;;;;20.38;5.10;;;13.00;99.90;;;;;;5033303;28;20067;-74
2022/05/27 02:07:12;;;;;;;18.45;4.97;;;12.90;99.90;;;;;;4981223;28;20075;-74
2022/05/27 02:10:29;;;;;;;21.63;5.40;;;12.90;99.90;;;;;;4979794;28;20129;-74
2022/05/27 02:13:38;;;;;;;22.42;5.57;;;12.90;99.90;;;;;;5060546;28;20051;-74
2022/05/27 02:16:51;;;;;;;24.25;5.45;;;12.90;99.90;;;;;;5058743;28;20120;-74
2022/05/27 02:20:03;;;;;;;20.33;5.05;;;12.90;99.90;;;;;;5009432;28;20065;-74
2022/05/27 02:23:06;;;;;;;18.48;5.07;;;12.90;99.90;;;;;;5052330;28;20064;-74
2022/05/27 02:26:16;;;;;;;18.02;5.32;;;13.00;99.90;;;;;;5057186;28;20047;-74
2022/05/27 02:29:02;;;;;;;18.05;5.55;;;13.00;99.90;;;;;;5037385;28;20106;-74
2022/05/27 02:31:47;;;;;;;23.20;5.28;;;12.90;99.90;;;;;;5038862;28;20113;-74
2022/05/27 02:35:32;;;;;;;19.45;5.07;;;12.80;99.90;;;;;;5039673;28;20079;-74
2022/05/27 02:38:23;;;;;;;24.13;4.88;;;12.90;99.90;;;;;;5022192;28;20167;-75
2022/05/27 02:41:56;;;;;;;22.42;5.13;;;12.80;99.90;;;;;;5060740;28;20059;-74
2022/05/27 02:45:40;;;;;;;25.38;5.07;;;12.70;99.90;;;;;;5042653;28;20106;-74
2022/05/27 02:48:23;;;;;;;24.52;4.57;;;12.70;99.90;;;;;;5036793;28;20105;-74
2022/05/27 02:51:49;;;;;;;26.58;5.00;;;12.70;99.90;;;;;;5046541;28;20045;-74
2022/05/27 02:54:55;;;;;;;25.27;4.85;;;12.70;99.90;;;;;;5051065;28;20049;-74
2022/05/27 02:57:46;;;;;;;25.13;4.88;;;12.60;99.90;;;;;;5031431;28;20049;-74
2022/05/27 03:00:33;;;;;;;18.60;4.40;;;12.60;99.90;;;;;;5046292;28;20079;-74
2022/05/27 03:03:03;;;;;;;23.80;4.30;;;12.50;99.90;;;;;;5047955;28;20488;-74
2022/05/27 03:06:39;;;;;;;20.88;4.28;;;12.50;99.90;;;;;;5055948;28;20079;-74
2022/05/27 03:09:57;;;;;;;19.95;3.88;;;12.50;99.90;;;;;;5045228;28;20570;-74
2022/05/27 03:13:31;;;;;;;22.23;4.35;;;12.50;99.90;;;;;;5058141;28;20076;-75
2022/05/27 03:16:45;;;;;;;23.55;4.90;;;12.40;99.90;;;;;;5059033;28;20118;-74
2022/05/27 03:19:54;;;;;;;17.92;4.65;;;12.40;99.90;;;;;;5053929;28;20057;-74
2022/05/27 03:23:11;;;;;;;21.02;4.85;;;12.40;99.90;;;;;;5056142;28;20045;-74
2022/05/27 03:25:46;;;;;;;26.00;5.78;;;12.40;99.90;;;;;;5018924;28;20411;-74
2022/05/27 03:28:42;;;;;;;24.63;4.73;;;12.40;99.90;;;;;;5060536;28;20041;-74
2022/05/27 03:31:22;;;;;;;23.85;4.85;;;12.40;99.90;;;;;;5059044;28;20029;-74
2022/05/27 03:34:14;;;;;;;27.52;4.43;;;12.40;99.90;;;;;;5057020;28;20064;-74
2022/05/27 03:36:47;;;;;;;23.52;4.63;;;12.40;99.90;;;;;;5057628;28;20564;-75
2022/05/27 03:39:24;;;;;;;27.20;5.03;;;12.40;99.90;;;;;;5041355;28;20043;-74
2022/05/27 03:41:56;;;;;;;26.35;4.90;;;12.40;99.90;;;;;;5043105;28;20039;-74
2022/05/27 03:44:27;;;;;;;24.07;4.67;;;12.40;99.90;;;;;;5034766;28;20033;-74
2022/05/27 03:46:54;;;;;;;25.52;4.82;;;12.40;99.90;;;;;;5054651;28;20114;-74
2022/05/27 03:49:20;;;;;;;21.70;4.93;;;12.40;99.90;;;;;;5052521;28;20041;-74
2022/05/27 03:52:06;;;;;;;25.85;5.10;;;12.40;99.90;;;;;;5059423;28;20614;-74
2022/05/27 03:54:33;;;;;;;24.08;5.05;;;12.40;99.90;;;;;;5058308;28;20100;-74
2022/05/27 03:56:59;;;;;;;26.42;5.05;;;12.30;99.90;;;;;;5058879;28;20230;-74
2022/05/27 03:59:26;;;;;;;19.75;4.50;;;12.40;99.90;;;;;;5058182;28;20514;-74
2022/05/27 04:01:53;;;;;;;19.63;4.40;;;12.40;99.90;;;;;;5063701;28;20072;-75
2022/05/27 04:04:25;;;;;;;26.33;4.50;;;12.40;99.90;;;;;;5053550;28;20460;-74
2022/05/27 04:06:51;;;;;;;22.88;4.47;;;12.40;99.90;;;;;;5058505;28;20120;-74
2022/05/27 04:09:19;;;;;;;27.80;4.95;;;12.40;99.90;;;;;;5037624;28;20069;-74
2022/05/27 04:11:45;;;;;;;22.92;4.40;;;12.40;99.90;;;;;;5057369;28;20055;-74
2022/05/27 04:14:11;;;;;;;29.63;4.88;;;12.50;99.90;;;;;;5058071;28;20041;-74
2022/05/27 04:16:37;;;;;;;23.48;4.70;;;12.40;99.90;;;;;;5040585;28;20076;-74
2022/05/27 04:19:04;;;;;;;25.48;4.60;;;12.50;99.90;;;;;;5020207;28;20116;-74
2022/05/27 04:21:30;;;;;;;21.95;5.30;;;12.50;99.90;;;;;;5057571;28;20134;-74
2022/05/27 04:23:56;;;;;;;22.38;4.50;;;12.50;99.90;;;;;;5038957;28;20454;-74
2022/05/27 04:26:22;;;;;;;23.33;4.40;;;12.50;99.90;;;;;;5055742;28;20041;-74
2022/05/27 04:28:48;;;;;;;30.40;4.68;;;12.50;99.90;;;;;;5056063;28;20459;-75
2022/05/27 04:31:14;;;;;;;25.02;4.65;;;12.50;99.90;;;;;;5052180;28;20040;-74
2022/05/27 04:33:40;;;;;;;23.58;4.85;;;12.50;99.90;;;;;;5056770;28;20090;-74
2022/05/27 04:36:07;;;;;;;20.33;4.07;;;12.50;99.90;;;;;;5054630;28;20116;-74
2022/05/27 04:38:33;;;;;;;28.58;4.82;;;12.60;99.90;;;;;;5056399;28;20399;-74
2022/05/27 04:40:59;;;;;;;19.23;4.25;;;12.60;99.90;;;;;;5048823;28;20040;-74
2022/05/27 04:43:25;;;;;;;23.40;4.68;;;12.70;99.90;;;;;;5053221;28;20127;-74
2022/05/27 04:45:51;;;;;;;17.75;4.53;;;12.60;99.90;;;;;;5052122;28;20047;-74
2022/05/27 04:48:18;;;;;;;22.25;3.95;;;12.70;99.90;;;;;;5058762;28;20556;-74
2022/05/27 04:50:44;;;;;;;24.55;3.97;;;12.60;99.90;;;;;;5039275;28;20029;-74
2022/05/27 04:53:10;;;;;;;18.92;4.15;;;12.60;99.90;;;;;;5048834;28;20044;-74
2022/05/27 04:55:38;;;;;;;19.30;3.63;;;12.60;99.90;;;;;;5057451;28;20040;-74
2022/05/27 04:58:04;;;;;;;21.15;3.63;;;12.60;99.90;;;;;;5055370;28;20554;-74
2022/05/27 05:00:42;;;;;;;18.85;3.88;;;12.50;99.90;;;;;;5037808;28;20445;-74
2022/05/27 05:03:08;;;;;;;17.80;3.65;;;12.50;99.90;;;;;;5055324;28;20458;-74
2022/05/27 05:05:35;;;;;;;18.15;3.83;;;12.50;99.90;;;;;;5049187;28;20080;-74
2022/05/27 05:08:05;;;;;;;20.70;4.13;;;12.40;99.90;;;;;;5051934;28;20044;-74
2022/05/27 05:10:31;;;;;;;18.60;3.70;;;12.40;99.90;;;;;;5045254;28;20041;-74
2022/05/27 05:12:57;;;;;;;18.20;3.97;;;12.40;99.90;;;;;;5036031;28;20033;-74
2022/05/27 05:15:25;;;;;;;17.38;3.45;;;12.40;99.90;;;;;;5054731;28;20103;-74
2022/05/27 05:17:51;;;;;;;20.15;3.70;;;12.40;99.90;;;;;;5053662;28;20479;-74
2022/05/27 05:20:23;;;;;;;21.02;3.65;;;12.40;99.90;;;;;;5052444;28;20395;-74
2022/05/27 05:22:49;;;;;;;;;;;12.40;99.90;;;;;;5053538;28;20033;-73
2022/05/27 05:25:15;;;;;;;17.48;3.67;;;12.40;99.90;;;;;;5053550;28;20413;-74
2022/05/27 05:27:41;;;;;;;21.23;3.85;;;12.50;99.90;;;;;;5053888;28;20391;-73
2022/05/27 05:30:11;;;;;;;19.98;3.47;;;12.60;99.90;;;;;;5053763;28;20090;-74
2022/05/27 05:32:37;;;;;;;18.75;3.85;;;12.60;99.90;;;;;;5048985;28;20087;-74
2022/05/27 05:35:03;;;;;;;15.50;3.65;;;12.70;99.90;;;;;;5013635;28;20032;-73
2022/05/27 05:37:29;;;;;;;19.25;3.47;;;12.70;99.90;;;;;;5046588;28;20052;-73
2022/05/27 05:39:55;;;;;;;18.08;3.33;;;12.80;99.90;;;;;;5049484;28;20040;-74
2022/05/27 05:42:20;;;;;;;19.33;3.70;;;12.90;99.90;;;;;;5019139;28;20090;-73
2022/05/27 05:44:46;;;;;;;14.05;3.45;;;12.90;99.90;;;;;;5051910;28;20395;-73
2022/05/27 05:47:12;;;;;;;19.63;3.60;;;13.00;99.90;;;;;;5052162;28;20052;-73
2022/05/27 05:49:38;;;;;;;16.70;3.60;;;13.00;99.90;;;;;;5047725;28;20040;-74
2022/05/27 05:52:05;;;;;;;14.02;3.38;;;13.00;99.90;;;;;;5048440;28;20041;-73
2022/05/27 05:54:31;;;;;;;13.15;2.88;;;13.00;99.90;;;;;;5048688;28;20037;-73
2022/05/27 05:57:03;;;;;;;17.13;2.95;;;13.10;99.90;;;;;;5013233;28;20051;-73
2022/05/27 05:59:34;;;;;;;13.57;2.83;;;13.10;99.90;;;;;;5049526;28;20116;-73
2022/05/27 06:02:00;;;;;;;15.75;3.33;;;13.20;99.90;;;;;;5046349;28;20132;-73
2022/05/27 06:04:26;;;;;;;15.88;3.08;;;13.20;99.90;;;;;;5050920;28;20040;-73
2022/05/27 06:06:52;;;;;;;16.65;3.30;;;13.30;99.90;;;;;;5044869;28;20037;-74
2022/05/27 06:09:25;;;;;;;16.55;3.92;;;13.40;99.90;;;;;;5047868;28;20090;-73
2022/05/27 06:12:00;;;;;;;14.88;3.28;;;13.40;99.90;;;;;;5042007;28;20120;-73
2022/05/27 06:14:26;;;;;;;11.45;2.75;;;13.40;99.90;;;;;;5043168;28;20442;-74
2022/05/27 06:16:51;;;;;;;15.48;3.50;;;13.50;99.90;;;;;;5033279;28;20041;-74
2022/05/27 06:19:17;;;;;;;18.17;3.53;;;13.60;99.90;;;;;;5048436;28;20083;-73
2022/05/27 06:21:43;;;;;;;15.85;2.97;;;13.60;99.90;;;;;;5051867;28;20037;-73
2022/05/27 06:24:10;;;;;;;21.38;3.72;;;13.70;99.90;;;;;;5051258;28;20036;-73
2022/05/27 06:26:38;;;;;;;19.00;3.53;;;13.80;99.90;;;;;;5031664;28;20045;-73
2022/05/27 06:34:32;;;;;;;19.35;3.47;;;14.10;99.90;;;;;;5049928;28;20044;-73
2022/05/27 06:37:14;;;;;;;12.85;3.60;;;14.10;99.90;;;;;;5048588;28;20048;-73
2022/05/27 06:39:41;;;;;;;16.63;3.33;;;14.20;99.90;;;;;;5049946;28;20033;-73
2022/05/27 06:42:09;;;;;;;15.48;2.95;;;14.20;99.90;;;;;;5049347;28;20043;-73
2022/05/27 06:44:36;;;;;;;15.75;3.38;;;14.20;99.90;;;;;;5050680;28;20048;-72
2022/05/27 06:47:03;;;;;;;16.27;3.00;;;14.30;99.90;;;;;;5042727;28;20033;-72
2022/05/27 06:49:29;;;;;;;15.45;3.35;;;14.30;99.90;;;;;;5050692;28;20091;-72
2022/05/27 06:51:55;;;;;;;20.98;3.40;;;14.30;99.90;;;;;;5047209;28;20081;-72
2022/05/27 06:54:22;;;;;;;16.83;3.58;;;14.40;99.90;;;;;;5048344;28;20075;-72
2022/05/27 06:56:52;;;;;;;15.85;3.30;;;14.50;99.90;;;;;;5050074;28;20037;-72
2022/05/27 06:59:20;;;;;;;14.15;3.47;;;14.60;99.90;;;;;;5050254;28;20064;-72
2022/05/27 07:01:46;;;;;;;20.98;4.03;;;14.70;99.90;;;;;;5045512;28;20085;-72
2022/05/27 07:04:13;;;;;;;15.98;3.55;;;14.80;99.90;;;;;;5052343;28;20036;-72
2022/05/27 07:06:44;;;;;;;15.05;3.00;;;14.80;99.90;;;;;;5046211;28;20036;-72
2022/05/27 07:09:12;;;;;;;14.93;3.20;;;14.80;99.90;;;;;;5047660;28;20069;-72
2022/05/27 07:11:40;;;;;;;16.08;3.58;;;14.90;99.90;;;;;;5050607;28;20094;-72
2022/05/27 07:14:06;;;;;;;17.65;3.10;;;15.00;99.90;;;;;;5050691;28;20033;-72
2022/05/27 07:16:31;;;;;;;16.85;3.70;;;15.00;99.90;;;;;;5051213;28;20048;-72
2022/05/27 07:18:57;;;;;;;18.05;3.50;;;14.90;99.90;;;;;;5050750;28;20162;-72
2022/05/27 07:21:23;;;;;;;13.77;3.58;;;14.90;99.90;;;;;;5050213;28;20052;-72
2022/05/27 07:23:52;;;;;;;17.13;3.95;;;14.80;99.90;;;;;;5045177;28;20045;-72
2022/05/27 07:26:19;;;;;;;17.23;3.38;;;14.80;99.90;;;;;;5044033;28;20040;-72
2022/05/27 07:28:44;;;;;;;21.40;3.30;;;14.80;99.90;;;;;;5052575;28;20068;-72
2022/05/27 07:31:10;;;;;;;19.88;3.55;;;14.60;99.90;;;;;;5050208;28;20094;-72
2022/05/27 07:33:36;;;;;;;15.73;3.35;;;14.60;99.90;;;;;;5047234;28;20057;-71
2022/05/27 07:36:01;;;;;;;14.60;2.90;;;14.60;99.90;;;;;;5050474;28;20037;-71
2022/05/27 07:38:27;;;;;;;18.25;3.90;;;14.70;99.90;;;;;;5050037;28;20044;-72
2022/05/27 07:40:53;;;;;;;15.88;3.28;;;14.90;99.90;;;;;;5050918;28;20108;-71
2022/05/27 07:43:19;;;;;;;17.30;3.85;;;15.10;99.90;;;;;;5045670;28;20045;-71
2022/05/27 07:45:45;;;;;;;15.43;3.15;;;15.20;99.90;;;;;;5051669;28;20041;-71
2022/05/27 07:48:12;;;;;;;12.25;3.17;;;15.30;99.90;;;;;;5049949;28;20043;-71
2022/05/27 07:50:39;;;;;;;16.35;2.72;;;15.40;99.90;;;;;;5046358;28;20041;-72
2022/05/27 07:53:05;;;;;;;19.98;3.55;;;15.40;99.90;;;;;;5050593;28;20127;-71
2022/05/27 07:55:31;;;;;;;15.18;3.15;;;15.40;99.90;;;;;;4969527;28;20570;-71
2022/05/27 07:57:57;;;;;;;15.90;3.42;;;15.30;99.90;;;;;;5028266;28;20480;-72
2022/05/27 08:00:27;;;;;;;17.48;3.25;;;15.20;99.90;;;;;;5029256;28;20049;-72
2022/05/27 08:02:53;;;;;;;15.13;3.45;;;15.20;99.90;;;;;;4902802;28;20069;-72
2022/05/27 08:05:23;;;;;;;16.05;3.20;;;15.30;99.90;;;;;;4958994;28;20080;-72
2022/05/27 08:07:50;;;;;;;10.52;2.80;;;15.30;99.90;;;;;;5024592;28;20037;-72
2022/05/27 08:10:19;;;;;;;16.48;3.10;;;15.40;99.90;;;;;;5023056;28;20072;-72
2022/05/27 08:12:45;;;;;;;12.20;2.67;;;15.30;99.90;;;;;;5015556;28;20065;-72
2022/05/27 08:15:12;;;;;;;12.68;2.83;;;15.40;99.90;;;;;;5024575;28;20480;-72
2022/05/27 08:17:39;;;;;;;12.38;2.63;;;15.50;99.90;;;;;;5024790;28;20507;-73
2022/05/27 08:20:07;;;;;;;14.98;3.22;;;15.60;99.90;;;;;;5024462;28;20087;-74
2022/05/27 08:22:32;;;;;;;12.98;3.20;;;15.60;99.90;;;;;;5022186;28;20049;-74
2022/05/27 08:24:58;;;;;;;11.07;2.65;;;15.60;99.90;;;;;;5024845;28;20048;-74
2022/05/27 08:27:24;;;;;;;12.73;2.72;;;15.90;99.90;;;;;;5038235;28;20083;-72
2022/05/27 08:29:49;;;;;;;14.70;2.95;;;15.90;99.90;;;;;;5021948;28;20029;-72
2022/05/27 08:32:15;;;;;;;10.20;2.72;;;15.90;99.30;;;;;;5023292;28;20041;-72
2022/05/27 08:40:22;;;;;;;10.95;2.85;;;15.70;98.70;;;;;;5023961;28;20488;-72
2022/05/27 08:43:16;;;;;;;8.32;2.40;;;15.80;98.40;;;;;;5023562;28;20037;-72
2022/05/27 08:45:57;;;;;;;11.63;2.28;;;15.80;95.00;;;;;;5022597;28;20476;-72
2022/05/27 08:48:26;;;;;;;12.43;2.70;;;15.70;95.50;;;;;;5023841;28;20103;-72
2022/05/27 08:50:57;;;;;;;15.35;3.38;;;15.80;98.90;;;;;;5021596;28;20408;-72
2022/05/27 08:53:51;;;;;;;14.32;2.95;;;16.00;99.30;;;;;;5023718;28;20053;-72
2022/05/27 08:59:31;;;;;;;16.08;3.42;;;16.20;99.40;;;;;;5022199;28;21570;-72
2022/05/27 09:02:19;;;;;;;15.70;3.28;;;16.30;96.90;;;;;;5038166;28;20046;-72
2022/05/27 09:04:51;;;;;;;14.98;2.97;;;16.30;99.70;;;;;;5021505;28;20037;-72
2022/05/27 09:07:42;;;;;;;11.70;2.50;;;16.40;99.90;;;;;;5020929;28;20037;-72
2022/05/27 09:10:14;;;;;;;11.02;2.38;;;16.50;99.90;;;;;;5024410;28;20124;-72
2022/05/27 09:13:10;;;;;;;14.70;3.40;;;16.40;96.20;;;;;;5020868;28;20068;-72
2022/05/27 09:15:59;;;;;;;14.85;3.05;;;16.10;97.90;;;;;;5022626;28;20042;-72
2022/05/27 09:18:43;;;;;;;9.73;2.67;;;16.00;97.00;;;;;;5020115;28;20499;-72
2022/05/27 09:21:28;;;;;;;13.77;3.15;;;16.20;98.70;;;;;;5023354;28;20045;-72
2022/05/27 09:24:25;;;;;;;13.85;2.65;;;16.20;92.70;;;;;;5022787;28;20041;-72
2022/05/27 09:27:00;;;;;;;15.70;3.00;;;16.20;97.40;;;;;;5024095;28;20053;-72
2022/05/27 09:29:59;;;;;;;10.82;2.80;;;16.40;99.90;;;;;;5023167;28;20038;-72
2022/05/27 09:32:44;;;;;;;14.10;2.78;;;16.60;98.10;;;;;;5023623;28;20086;-72
2022/05/27 09:35:19;;;;;;;9.82;2.50;;;16.50;98.30;;;;;;5023612;28;20041;-72
2022/05/27 09:37:49;;;;;;;13.38;2.78;;;16.60;98.30;;;;;;5019843;28;20111;-72
2022/05/27 09:40:46;;;;;;;16.90;2.90;;;16.70;99.90;;;;;;5023936;28;20033;-72
2022/05/27 09:43:22;;;;;;;11.32;2.40;;;16.90;99.90;;;;;;5007230;28;20046;-72
2022/05/27 09:45:58;;;;;;;11.98;2.45;;;16.90;96.90;;;;;;5027182;28;20038;-72
2022/05/27 09:48:25;;;;;;;11.65;2.15;;;17.10;99.50;;;;;;5007050;28;20073;-72
2022/05/27 09:50:52;;;;;;;9.25;2.83;;;17.10;96.00;;;;;;5026181;28;20048;-72
2022/05/27 09:53:24;;;;;;;9.77;2.65;;;16.90;96.20;;;;;;5024682;28;20041;-72
2022/05/27 09:56:01;;;;;;;8.77;2.47;;;16.60;94.90;;;;;;5025394;28;20049;-72
2022/05/27 09:58:30;;;;;;;11.48;2.78;;;16.30;96.90;;;;;;5025934;28;20041;-72
2022/05/27 10:00:56;;;;;;;12.38;2.75;;;16.30;99.90;;;;;;5026276;28;20033;-72
2022/05/27 10:03:26;;;;;;;10.65;2.67;;;16.50;99.90;;;;;;5029276;28;20044;-72
2022/05/27 10:05:56;;;;;;;11.30;2.50;;;16.80;99.90;;;;;;5025178;28;20069;-72
2022/05/27 10:08:28;;;;;;;16.42;2.80;;;17.10;99.90;;;;;;5027362;28;20041;-73
2022/05/27 10:11:23;;;;;;;13.10;2.80;;;17.20;98.70;;;;;;5025676;28;20041;-72
2022/05/27 10:14:14;;;;;;;12.63;2.72;;;17.20;94.50;;;;;;5024852;28;20484;-72
2022/05/27 10:16:43;;;;;;;10.38;2.55;;;17.00;94.00;;;;;;5027472;28;20172;-72
2022/05/27 10:19:14;;;;;;;12.48;2.85;;;16.90;96.60;;;;;;5023333;28;20033;-72
2022/05/27 10:21:53;;;;;;;9.37;2.40;;;16.90;99.30;;;;;;5025723;28;20042;-72
2022/05/27 10:24:23;;;;;;;13.25;3.03;;;16.90;98.00;;;;;;5026544;28;20295;-72
2022/05/27 10:27:09;;;;;;;10.52;2.30;;;16.90;96.70;;;;;;5024187;28;20042;-72
2022/05/27 10:29:58;;;;;;;10.70;2.50;;;17.10;94.50;;;;;;5027546;28;20041;-72
2022/05/27 10:32:41;;;;;;;12.30;2.63;;;17.30;93.50;;;;;;5024803;28;20053;-72
2022/05/27 10:35:32;;;;;;;11.57;2.72;;;17.60;84.30;;;;;;5024972;28;20163;-72
2022/05/27 10:38:12;;;;;;;13.73;2.83;;;17.70;91.80;;;;;;5041933;28;20049;-72
2022/05/27 10:40:59;;;;;;;11.93;2.65;;;17.80;90.70;;;;;;5024430;28;20069;-72
2022/05/27 10:43:46;;;;;;;11.07;2.67;;;17.70;90.60;;;;;;5024118;28;20091;-72
2022/05/27 10:46:15;;;;;;;11.75;2.55;;;17.60;92.10;;;;;;5023350;28;20084;-72
2022/05/27 10:49:00;;;;;;;10.30;2.63;;;17.80;93.10;;;;;;4902944;28;20073;-72
2022/05/27 10:51:35;;;;;;;12.98;2.90;;;17.80;91.80;;;;;;5017747;28;20065;-72
2022/05/27 10:54:22;;;;;;;13.25;2.40;;;17.90;93.10;;;;;;5024062;28;20091;-72
2022/05/27 11:03:25;;;;;;;14.50;3.38;;;18.30;88.90;;;;;;5024596;28;20080;-72
2022/05/27 11:06:12;;;;;;;9.27;2.50;;;18.30;86.60;;;;;;5024729;28;20054;-72
2022/05/27 11:09:05;;;;;;;11.50;2.45;;;18.40;89.50;;;;;;5022952;28;20041;-72
2022/05/27 11:11:47;;;;;;;12.57;2.63;;;18.30;87.10;;;;;;5025375;28;20077;-72
2022/05/27 11:17:24;;;;;;;11.30;2.50;;;17.80;89.60;;;;;;5025388;28;20160;-72
2022/05/27 11:20:24;;;;;;;12.63;2.50;;;17.40;91.70;;;;;;5045012;28;20044;-72
2022/05/27 11:23:13;;;;;;;10.80;2.47;;;17.80;80.80;;;;;;5022766;28;20040;-72
2022/05/27 11:26:17;;;;;;;11.73;2.40;;;17.80;77.10;;;;;;5039892;28;20042;-72
2022/05/27 11:28:45;;;;;;;10.57;2.50;;;17.50;87.20;;;;;;5024349;28;20052;-72
2022/05/27 11:31:41;;;;;;;14.75;3.20;;;17.10;91.60;;;;;;5023869;28;20075;-72
2022/05/27 11:34:34;;;;;;;15.35;3.25;;;17.20;94.30;;;;;;5025548;28;20049;-73
2022/05/27 11:37:15;;;;;;;17.48;2.90;;;17.30;95.70;;;;;;5040261;28;20082;-73
2022/05/27 11:39:57;;;;;;;14.30;3.10;;;17.60;97.60;;;;;;5022056;28;20083;-72
2022/05/27 11:42:29;;;;;;;;;;;17.70;91.40;;;;;;5024813;28;20080;-73
2022/05/27 11:45:23;;;;;;;12.43;2.38;;;17.70;93.50;;;;;;5023220;28;19924;-72
2022/05/27 11:48:04;;;;;;;9.27;2.45;;;18.00;84.20;;;;;;5039289;28;20132;-73
2022/05/27 11:50:33;;;;;;;9.13;2.50;;;18.30;86.00;;;;;;5024228;28;20037;-72
2022/05/27 11:53:20;;;;;;;9.70;2.38;;;18.30;81.80;;;;;;5024390;28;20051;-72
2022/05/27 11:55:52;;;;;;;11.23;2.50;;;18.00;78.30;;;;;;5022258;28;20041;-72
2022/05/27 11:58:31;;;;;;;8.90;2.30;;;17.90;85.10;;;;;;5029510;28;20037;-72
2022/05/27 12:01:08;;;;;;;13.82;2.55;;;18.20;92.10;;;;;;5030486;28;20060;-72
2022/05/27 12:03:49;;;;;;;12.15;3.05;;;18.60;90.00;;;;;;5023128;28;20104;-72
2022/05/27 12:06:24;;;;;;;12.07;3.25;;;18.70;89.00;;;;;;5030750;28;20041;-72
2022/05/27 12:09:06;;;;;;;16.05;2.97;;;18.60;87.70;;;;;;5027341;28;20041;-72
2022/05/27 12:11:44;;;;;;;19.73;3.20;;;18.40;87.50;;;;;;5029452;28;20129;-72
2022/05/27 12:14:17;;;;;;;13.88;2.97;;;18.40;91.90;;;;;;5024317;28;20087;-72
2022/05/27 12:16:48;;;;;;;13.68;3.13;;;18.50;93.70;;;;;;5023945;28;20124;-72
2022/05/27 12:19:24;;;;;;;13.63;2.97;;;18.70;87.90;;;;;;5024527;28;20037;-72
2022/05/27 12:22:04;;;;;;;13.40;3.00;;;18.60;83.90;;;;;;5023856;28;20057;-72
2022/05/27 12:24:42;;;;;;;14.23;2.88;;;18.70;90.30;;;;;;5022889;28;20045;-72
2022/05/27 12:27:11;;;;;;;11.80;3.00;;;18.90;88.20;;;;;;5022183;28;20503;-72
2022/05/27 12:29:38;;;;;;;13.38;2.53;;;19.00;87.80;;;;;;5022588;28;20054;-72
2022/05/27 12:32:08;;;;;;;11.23;2.63;;;19.00;86.00;;;;;;5024640;28;20036;-72
2022/05/27 12:34:43;;;;;;;11.15;2.78;;;19.00;79.90;;;;;;5023706;28;20029;-72
2022/05/27 12:37:12;;;;;;;16.13;2.72;;;19.20;85.00;;;;;;5023648;28;20026;-72
2022/05/27 12:39:39;;;;;;;18.92;3.35;;;19.30;85.50;;;;;;5022093;28;20048;-72
2022/05/27 12:42:18;;;;;;;13.02;2.90;;;19.10;83.10;;;;;;5021942;28;20056;-72
2022/05/27 12:44:45;;;;;;;16.63;3.72;;;19.00;86.00;;;;;;5019272;28;20482;-71
2022/05/27 12:47:22;;;;;;;16.60;3.40;;;18.80;87.00;;;;;;5024207;28;20064;-72
2022/05/27 12:50:05;;;;;;;15.20;3.42;;;18.90;92.20;;;;;;5023925;28;20061;-72
2022/05/27 12:52:30;;;;;;;;;;;18.90;89.10;;;;;;5023744;28;20114;-71
2022/05/27 12:54:56;;;;;;;15.70;2.95;;;18.80;90.50;;;;;;5021452;28;20371;-71
2022/05/27 13:03:33;;;;;;;12.88;3.28;;;17.80;84.60;;;;;;5022183;28;20435;-71
2022/05/27 13:06:33;;;;;;;14.10;3.25;;;17.60;90.30;;;;;;5020906;28;20525;-72
2022/05/27 13:09:10;;;;;;;15.88;3.60;;;17.50;92.00;;;;;;4952087;28;20092;-71
2022/05/27 13:11:39;;;;;;;12.13;2.85;;;17.30;92.10;;;;;;4955989;28;20503;-72
2022/05/27 13:14:05;;;;;;;14.40;3.05;;;17.20;93.80;;;;;;5021878;28;20620;-72
2022/05/27 13:16:59;;;;;;;18.95;2.72;;;17.00;94.50;;;;;;5023218;28;20044;-71
2022/05/27 13:19:50;;;;;;;15.27;3.60;;;17.40;97.70;;;;;;4971004;28;20044;-71
2022/05/27 13:22:34;;;;;;;16.65;3.50;;;17.90;97.10;;;;;;5012186;28;20542;-71
2022/05/27 13:25:34;;;;;;;14.23;3.40;;;18.30;96.30;;;;;;5025669;28;20492;-71
2022/05/27 13:28:03;;;;;;;18.63;2.92;;;18.70;98.10;;;;;;5037514;28;20519;-71
2022/05/27 13:31:03;;;;;;;14.85;3.28;;;18.60;88.30;;;;;;5025056;28;20041;-71
2022/05/27 13:34:05;;;;;;;14.23;2.95;;;18.40;87.30;;;;;;5027356;28;20417;-71
2022/05/27 13:36:49;;;;;;;16.10;3.45;;;18.30;91.80;;;;;;5025907;28;20045;-71
2022/05/27 13:39:22;;;;;;;11.50;2.50;;;18.50;93.90;;;;;;5023411;28;20044;-72
2022/05/27 13:41:51;;;;;;;20.20;3.03;;;18.50;90.00;;;;;;5031864;28;20381;-71
2022/05/27 13:44:20;;;;;;;11.35;2.50;;;18.70;89.90;;;;;;5034158;28;20139;-71
2022/05/27 13:46:50;;;;;;;14.40;3.05;;;18.50;81.60;;;;;;5028167;28;20129;-71
2022/05/27 13:49:28;;;;;;;15.05;2.70;;;18.60;84.20;;;;;;5033502;28;20076;-71
2022/05/27 13:51:54;;;;;;;16.75;3.22;;;18.70;82.40;;;;;;5027409;28;20052;-71
2022/05/27 13:54:29;;;;;;;12.32;2.85;;;18.90;85.50;;;;;;5025572;28;20037;-71
2022/05/27 13:56:58;;;;;;;12.88;2.72;;;19.00;83.20;;;;;;5027084;28;20037;-71
2022/05/27 13:59:30;;;;;;;12.50;2.83;;;18.80;80.40;;;;;;5026719;28;20041;-71
2022/05/27 14:01:59;;;;;;;15.93;3.50;;;18.60;86.50;;;;;;5025204;28;20045;-72
2022/05/27 14:04:29;;;;;;;14.02;3.08;;;18.30;86.20;;;;;;5025172;28;20041;-71
2022/05/27 14:06:56;;;;;;;14.65;3.17;;;18.40;92.20;;;;;;5026949;28;20056;-71
2022/05/27 14:09:26;;;;;;;17.23;3.25;;;18.40;89.10;;;;;;5025128;28;20033;-71
2022/05/27 14:11:55;;;;;;;12.75;3.30;;;18.30;91.30;;;;;;5025367;28;20087;-71
2022/05/27 14:14:30;;;;;;;10.93;2.80;;;18.50;91.30;;;;;;5021781;28;20059;-72
2022/05/27 14:16:57;;;;;;;15.43;3.13;;;18.90;93.50;;;;;;5024326;28;20042;-71
2022/05/27 14:19:25;;;;;;;12.93;3.03;;;19.00;89.20;;;;;;5023727;28;20420;-71
2022/05/27 14:22:40;;;;;;;13.88;3.42;;;19.10;86.40;;;;;;5023229;28;20057;-71